sensor_id;sensor_type;location;lat;lon;timestamp;P1;durP1;ratioP1;P2;durP2;ratioP2
76807;SDS011;65758;45.458;11.062;2024-01-15T00:00:22;64.20;;;40.70;;
76807;SDS011;65758;45.458;11.062;2024-01-15T00:02:49;74.00;;;42.60;;
76807;SDS011;65758;45.458;11.062;2024-01-15T00:05:16;67.00;;;37.90;;
76807;SDS011;65758;45.458;11.062;2024-01-15T00:07:43;61.70;;;38.30;;
76807;SDS011;65758;45.458;11.062;2024-01-15T00:10:09;65.50;;;38.40;;
76807;SDS011;65758;45.458;11.062;2024-01-15T00:12:36;68.00;;;37.70;;
76807;SDS011;65758;45.458;11.062;2024-01-15T00:15:03;64.50;;;39.30;;
76807;SDS011;65758;45.458;11.062;2024-01-15T00:17:31;69.70;;;43.20;;
76807;SDS011;65758;45.458;11.062;2024-01-15T00:19:58;68.60;;;39.30;;
76807;SDS011;65758;45.458;11.062;2024-01-15T00:22:25;65.70;;;39.00;;
76807;SDS011;65758;45.458;11.062;2024-01-15T00:24:53;65.70;;;40.90;;
76807;SDS011;65758;45.458;11.062;2024-01-15T00:27:21;66.50;;;38.40;;
76807;SDS011;65758;45.458;11.062;2024-01-15T00:29:48;63.20;;;38.40;;
76807;SDS011;65758;45.458;11.062;2024-01-15T00:32:16;66.40;;;38.40;;
76807;SDS011;65758;45.458;11.062;2024-01-15T00:34:43;68.90;;;42.10;;
76807;SDS011;65758;45.458;11.062;2024-01-15T00:37:10;69.00;;;39.70;;
76807;SDS011;65758;45.458;11.062;2024-01-15T00:39:37;68.20;;;38.90;;
76807;SDS011;65758;45.458;11.062;2024-01-15T00:42:04;64.70;;;36.90;;
76807;SDS011;65758;45.458;11.062;2024-01-15T00:44:32;67.60;;;40.80;;
76807;SDS011;65758;45.458;11.062;2024-01-15T00:49:26;64.40;;;38.10;;
76807;SDS011;65758;45.458;11.062;2024-01-15T00:51:54;62.20;;;36.30;;
76807;SDS011;65758;45.458;11.062;2024-01-15T00:56:47;65.60;;;37.30;;
76807;SDS011;65758;45.458;11.062;2024-01-15T01:01:42;63.80;;;37.90;;
76807;SDS011;65758;45.458;11.062;2024-01-15T01:04:10;71.50;;;39.10;;
76807;SDS011;65758;45.458;11.062;2024-01-15T01:06:37;65.90;;;40.00;;
76807;SDS011;65758;45.458;11.062;2024-01-15T01:09:04;69.80;;;40.70;;
76807;SDS011;65758;45.458;11.062;2024-01-15T01:11:31;65.80;;;37.60;;
76807;SDS011;65758;45.458;11.062;2024-01-15T01:16:25;65.90;;;38.40;;
76807;SDS011;65758;45.458;11.062;2024-01-15T01:21:19;65.10;;;37.20;;
76807;SDS011;65758;45.458;11.062;2024-01-15T01:23:46;65.00;;;39.20;;
76807;SDS011;65758;45.458;11.062;2024-01-15T01:26:16;67.70;;;37.40;;
76807;SDS011;65758;45.458;11.062;2024-01-15T01:28:44;67.00;;;39.60;;
76807;SDS011;65758;45.458;11.062;2024-01-15T01:31:11;67.40;;;39.00;;
76807;SDS011;65758;45.458;11.062;2024-01-15T01:33:38;69.50;;;38.90;;
76807;SDS011;65758;45.458;11.062;2024-01-15T01:36:07;72.60;;;39.40;;
76807;SDS011;65758;45.458;11.062;2024-01-15T01:38:36;67.50;;;38.40;;
76807;SDS011;65758;45.458;11.062;2024-01-15T01:41:04;66.00;;;39.50;;
76807;SDS011;65758;45.458;11.062;2024-01-15T01:43:31;65.90;;;38.00;;
76807;SDS011;65758;45.458;11.062;2024-01-15T01:45:58;61.80;;;36.80;;
76807;SDS011;65758;45.458;11.062;2024-01-15T01:48:27;61.40;;;34.60;;
76807;SDS011;65758;45.458;11.062;2024-01-15T01:50:56;58.10;;;36.70;;
76807;SDS011;65758;45.458;11.062;2024-01-15T01:53:26;62.20;;;35.00;;
76807;SDS011;65758;45.458;11.062;2024-01-15T01:55:54;58.70;;;35.60;;
76807;SDS011;65758;45.458;11.062;2024-01-15T01:58:22;61.50;;;35.60;;
76807;SDS011;65758;45.458;11.062;2024-01-15T02:00:49;59.00;;;35.20;;
76807;SDS011;65758;45.458;11.062;2024-01-15T02:03:17;58.40;;;35.20;;
76807;SDS011;65758;45.458;11.062;2024-01-15T02:05:44;55.90;;;35.70;;
76807;SDS011;65758;45.458;11.062;2024-01-15T02:08:15;55.00;;;34.40;;
76807;SDS011;65758;45.458;11.062;2024-01-15T02:10:42;58.30;;;36.50;;
76807;SDS011;65758;45.458;11.062;2024-01-15T02:15:35;59.10;;;34.00;;
76807;SDS011;65758;45.458;11.062;2024-01-15T02:18:03;54.70;;;33.70;;
76807;SDS011;65758;45.458;11.062;2024-01-15T02:20:31;54.40;;;32.80;;
76807;SDS011;65758;45.458;11.062;2024-01-15T02:23:05;58.00;;;34.60;;
76807;SDS011;65758;45.458;11.062;2024-01-15T02:25:37;55.70;;;34.00;;
76807;SDS011;65758;45.458;11.062;2024-01-15T02:28:06;64.70;;;36.20;;
76807;SDS011;65758;45.458;11.062;2024-01-15T02:30:41;53.90;;;33.80;;
76807;SDS011;65758;45.458;11.062;2024-01-15T02:33:10;54.90;;;33.20;;
76807;SDS011;65758;45.458;11.062;2024-01-15T02:35:39;57.00;;;36.20;;
76807;SDS011;65758;45.458;11.062;2024-01-15T02:38:06;61.00;;;34.10;;
76807;SDS011;65758;45.458;11.062;2024-01-15T02:40:34;58.20;;;36.70;;
76807;SDS011;65758;45.458;11.062;2024-01-15T02:43:02;55.80;;;33.60;;
76807;SDS011;65758;45.458;11.062;2024-01-15T02:45:29;57.10;;;34.10;;
76807;SDS011;65758;45.458;11.062;2024-01-15T02:47:57;57.50;;;34.90;;
76807;SDS011;65758;45.458;11.062;2024-01-15T02:50:24;62.30;;;33.20;;
76807;SDS011;65758;45.458;11.062;2024-01-15T02:52:51;56.80;;;33.10;;
76807;SDS011;65758;45.458;11.062;2024-01-15T02:55:18;54.40;;;33.70;;
76807;SDS011;65758;45.458;11.062;2024-01-15T03:00:12;54.40;;;33.30;;
76807;SDS011;65758;45.458;11.062;2024-01-15T03:02:39;59.00;;;33.30;;
76807;SDS011;65758;45.458;11.062;2024-01-15T03:05:11;51.40;;;31.10;;
76807;SDS011;65758;45.458;11.062;2024-01-15T03:07:38;59.90;;;34.60;;
76807;SDS011;65758;45.458;11.062;2024-01-15T03:10:05;56.20;;;33.70;;
76807;SDS011;65758;45.458;11.062;2024-01-15T03:12:33;54.60;;;34.60;;
76807;SDS011;65758;45.458;11.062;2024-01-15T03:15:00;55.50;;;34.00;;
76807;SDS011;65758;45.458;11.062;2024-01-15T03:19:53;61.50;;;34.10;;
76807;SDS011;65758;45.458;11.062;2024-01-15T03:22:20;56.70;;;36.30;;
76807;SDS011;65758;45.458;11.062;2024-01-15T03:27:14;55.50;;;33.40;;
76807;SDS011;65758;45.458;11.062;2024-01-15T03:29:41;55.50;;;34.40;;
76807;SDS011;65758;45.458;11.062;2024-01-15T03:34:35;55.00;;;33.00;;
76807;SDS011;65758;45.458;11.062;2024-01-15T03:37:02;57.70;;;33.40;;
76807;SDS011;65758;45.458;11.062;2024-01-15T03:39:29;57.70;;;32.90;;
76807;SDS011;65758;45.458;11.062;2024-01-15T03:41:56;56.90;;;33.50;;
76807;SDS011;65758;45.458;11.062;2024-01-15T03:46:49;55.60;;;32.80;;
76807;SDS011;65758;45.458;11.062;2024-01-15T03:49:16;54.30;;;32.60;;
76807;SDS011;65758;45.458;11.062;2024-01-15T03:54:11;50.00;;;29.10;;
76807;SDS011;65758;45.458;11.062;2024-01-15T03:56:38;44.00;;;28.30;;
76807;SDS011;65758;45.458;11.062;2024-01-15T04:01:32;44.20;;;27.40;;
76807;SDS011;65758;45.458;11.062;2024-01-15T04:03:58;43.90;;;26.80;;
76807;SDS011;65758;45.458;11.062;2024-01-15T04:06:26;47.40;;;28.40;;
76807;SDS011;65758;45.458;11.062;2024-01-15T04:08:53;41.00;;;25.10;;
76807;SDS011;65758;45.458;11.062;2024-01-15T04:11:19;39.80;;;24.20;;
76807;SDS011;65758;45.458;11.062;2024-01-15T04:16:13;42.00;;;23.70;;
76807;SDS011;65758;45.458;11.062;2024-01-15T04:18:40;49.10;;;30.00;;
76807;SDS011;65758;45.458;11.062;2024-01-15T04:21:07;46.20;;;28.90;;
76807;SDS011;65758;45.458;11.062;2024-01-15T04:23:34;50.00;;;29.50;;
76807;SDS011;65758;45.458;11.062;2024-01-15T04:26:01;48.30;;;29.30;;
76807;SDS011;65758;45.458;11.062;2024-01-15T04:30:54;46.00;;;27.00;;
76807;SDS011;65758;45.458;11.062;2024-01-15T04:33:21;43.60;;;27.30;;
76807;SDS011;65758;45.458;11.062;2024-01-15T04:35:49;43.20;;;25.70;;
76807;SDS011;65758;45.458;11.062;2024-01-15T04:38:16;42.80;;;25.60;;
76807;SDS011;65758;45.458;11.062;2024-01-15T04:40:43;45.20;;;26.80;;
76807;SDS011;65758;45.458;11.062;2024-01-15T04:45:36;39.90;;;24.00;;
76807;SDS011;65758;45.458;11.062;2024-01-15T04:48:03;41.90;;;26.00;;
76807;SDS011;65758;45.458;11.062;2024-01-15T04:50:30;38.60;;;23.90;;
76807;SDS011;65758;45.458;11.062;2024-01-15T04:55:24;41.70;;;25.20;;
76807;SDS011;65758;45.458;11.062;2024-01-15T04:57:51;41.20;;;24.80;;
76807;SDS011;65758;45.458;11.062;2024-01-15T05:00:17;42.80;;;24.30;;
76807;SDS011;65758;45.458;11.062;2024-01-15T05:02:45;44.60;;;27.10;;
76807;SDS011;65758;45.458;11.062;2024-01-15T05:07:38;50.20;;;30.70;;
76807;SDS011;65758;45.458;11.062;2024-01-15T05:12:34;40.80;;;22.90;;
76807;SDS011;65758;45.458;11.062;2024-01-15T05:15:01;38.20;;;23.00;;
76807;SDS011;65758;45.458;11.062;2024-01-15T05:17:28;46.70;;;25.90;;
76807;SDS011;65758;45.458;11.062;2024-01-15T05:22:22;38.10;;;24.40;;
76807;SDS011;65758;45.458;11.062;2024-01-15T05:24:51;41.60;;;25.80;;
76807;SDS011;65758;45.458;11.062;2024-01-15T05:27:18;39.60;;;24.70;;
76807;SDS011;65758;45.458;11.062;2024-01-15T05:29:45;43.10;;;24.60;;
76807;SDS011;65758;45.458;11.062;2024-01-15T05:34:39;41.10;;;24.40;;
76807;SDS011;65758;45.458;11.062;2024-01-15T05:37:06;42.40;;;23.90;;
76807;SDS011;65758;45.458;11.062;2024-01-15T05:41:59;43.40;;;26.60;;
76807;SDS011;65758;45.458;11.062;2024-01-15T05:44:27;41.70;;;24.70;;
76807;SDS011;65758;45.458;11.062;2024-01-15T05:46:54;38.80;;;23.60;;
76807;SDS011;65758;45.458;11.062;2024-01-15T05:51:48;34.40;;;19.60;;
76807;SDS011;65758;45.458;11.062;2024-01-15T05:54:16;39.80;;;22.70;;
76807;SDS011;65758;45.458;11.062;2024-01-15T05:56:42;41.30;;;23.30;;
76807;SDS011;65758;45.458;11.062;2024-01-15T06:01:42;37.80;;;20.80;;
76807;SDS011;65758;45.458;11.062;2024-01-15T06:04:09;39.80;;;23.20;;
76807;SDS011;65758;45.458;11.062;2024-01-15T06:06:36;42.20;;;23.80;;
76807;SDS011;65758;45.458;11.062;2024-01-15T06:09:03;39.50;;;23.00;;
76807;SDS011;65758;45.458;11.062;2024-01-15T06:11:32;35.90;;;22.70;;
76807;SDS011;65758;45.458;11.062;2024-01-15T06:13:59;39.10;;;24.80;;
76807;SDS011;65758;45.458;11.062;2024-01-15T06:16:30;47.90;;;26.80;;
76807;SDS011;65758;45.458;11.062;2024-01-15T06:18:57;45.80;;;24.20;;
76807;SDS011;65758;45.458;11.062;2024-01-15T06:21:24;42.70;;;23.80;;
76807;SDS011;65758;45.458;11.062;2024-01-15T06:23:52;41.20;;;24.60;;
76807;SDS011;65758;45.458;11.062;2024-01-15T06:28:45;37.40;;;23.10;;
76807;SDS011;65758;45.458;11.062;2024-01-15T06:33:39;37.30;;;20.00;;
76807;SDS011;65758;45.458;11.062;2024-01-15T06:36:07;38.30;;;21.10;;
76807;SDS011;65758;45.458;11.062;2024-01-15T06:38:34;37.80;;;22.90;;
76807;SDS011;65758;45.458;11.062;2024-01-15T06:41:01;38.80;;;22.50;;
76807;SDS011;65758;45.458;11.062;2024-01-15T06:43:27;37.80;;;22.40;;
76807;SDS011;65758;45.458;11.062;2024-01-15T06:45:54;35.50;;;21.80;;
76807;SDS011;65758;45.458;11.062;2024-01-15T06:48:21;37.60;;;23.90;;
76807;SDS011;65758;45.458;11.062;2024-01-15T06:50:49;40.00;;;22.90;;
76807;SDS011;65758;45.458;11.062;2024-01-15T06:53:15;38.10;;;22.30;;
76807;SDS011;65758;45.458;11.062;2024-01-15T06:58:09;39.90;;;23.40;;
76807;SDS011;65758;45.458;11.062;2024-01-15T07:00:36;40.90;;;24.10;;
76807;SDS011;65758;45.458;11.062;2024-01-15T07:03:04;35.20;;;20.70;;
76807;SDS011;65758;45.458;11.062;2024-01-15T07:05:31;35.70;;;21.50;;
76807;SDS011;65758;45.458;11.062;2024-01-15T07:07:58;35.70;;;22.10;;
76807;SDS011;65758;45.458;11.062;2024-01-15T07:12:52;40.70;;;22.60;;
76807;SDS011;65758;45.458;11.062;2024-01-15T07:15:20;39.90;;;24.30;;
76807;SDS011;65758;45.458;11.062;2024-01-15T07:17:47;85.80;;;42.60;;
76807;SDS011;65758;45.458;11.062;2024-01-15T07:20:14;55.50;;;30.30;;
76807;SDS011;65758;45.458;11.062;2024-01-15T07:22:41;43.60;;;24.90;;
76807;SDS011;65758;45.458;11.062;2024-01-15T07:27:35;49.40;;;28.90;;
76807;SDS011;65758;45.458;11.062;2024-01-15T07:32:32;39.00;;;22.70;;
76807;SDS011;65758;45.458;11.062;2024-01-15T07:34:59;38.40;;;22.80;;
76807;SDS011;65758;45.458;11.062;2024-01-15T07:37:26;39.80;;;23.50;;
76807;SDS011;65758;45.458;11.062;2024-01-15T07:39:53;43.00;;;22.50;;
76807;SDS011;65758;45.458;11.062;2024-01-15T07:42:20;43.90;;;25.70;;
76807;SDS011;65758;45.458;11.062;2024-01-15T07:44:47;34.30;;;21.90;;
76807;SDS011;65758;45.458;11.062;2024-01-15T07:49:41;31.30;;;19.30;;
76807;SDS011;65758;45.458;11.062;2024-01-15T07:52:08;36.30;;;22.00;;
76807;SDS011;65758;45.458;11.062;2024-01-15T07:54:36;43.40;;;24.60;;
76807;SDS011;65758;45.458;11.062;2024-01-15T07:57:03;38.20;;;23.20;;
76807;SDS011;65758;45.458;11.062;2024-01-15T07:59:30;37.20;;;21.90;;
76807;SDS011;65758;45.458;11.062;2024-01-15T08:01:58;35.40;;;21.50;;
76807;SDS011;65758;45.458;11.062;2024-01-15T08:04:26;37.70;;;23.70;;
76807;SDS011;65758;45.458;11.062;2024-01-15T08:06:54;34.80;;;22.30;;
76807;SDS011;65758;45.458;11.062;2024-01-15T08:09:21;37.80;;;22.60;;
76807;SDS011;65758;45.458;11.062;2024-01-15T08:11:48;38.70;;;22.90;;
76807;SDS011;65758;45.458;11.062;2024-01-15T08:14:17;37.90;;;23.60;;
76807;SDS011;65758;45.458;11.062;2024-01-15T08:16:44;42.80;;;23.60;;
76807;SDS011;65758;45.458;11.062;2024-01-15T08:19:11;40.40;;;23.40;;
76807;SDS011;65758;45.458;11.062;2024-01-15T08:21:38;54.10;;;31.60;;
76807;SDS011;65758;45.458;11.062;2024-01-15T08:24:05;34.70;;;21.80;;
76807;SDS011;65758;45.458;11.062;2024-01-15T08:26:32;41.40;;;23.30;;
76807;SDS011;65758;45.458;11.062;2024-01-15T08:28:59;51.30;;;27.50;;
76807;SDS011;65758;45.458;11.062;2024-01-15T08:31:26;44.70;;;26.80;;
76807;SDS011;65758;45.458;11.062;2024-01-15T08:33:54;55.70;;;30.70;;
76807;SDS011;65758;45.458;11.062;2024-01-15T08:36:22;43.00;;;25.10;;
76807;SDS011;65758;45.458;11.062;2024-01-15T08:38:50;39.60;;;24.90;;
76807;SDS011;65758;45.458;11.062;2024-01-15T08:41:17;39.80;;;23.90;;
76807;SDS011;65758;45.458;11.062;2024-01-15T08:43:44;39.00;;;24.60;;
76807;SDS011;65758;45.458;11.062;2024-01-15T08:46:11;41.50;;;23.90;;
76807;SDS011;65758;45.458;11.062;2024-01-15T08:48:38;41.20;;;22.70;;
76807;SDS011;65758;45.458;11.062;2024-01-15T08:51:06;41.10;;;25.60;;
76807;SDS011;65758;45.458;11.062;2024-01-15T08:53:35;38.60;;;25.30;;
76807;SDS011;65758;45.458;11.062;2024-01-15T08:56:02;45.50;;;25.50;;
76807;SDS011;65758;45.458;11.062;2024-01-15T08:58:28;45.20;;;27.50;;
76807;SDS011;65758;45.458;11.062;2024-01-15T09:03:23;47.20;;;30.60;;
76807;SDS011;65758;45.458;11.062;2024-01-15T09:05:51;43.40;;;27.60;;
76807;SDS011;65758;45.458;11.062;2024-01-15T09:08:18;40.50;;;25.40;;
76807;SDS011;65758;45.458;11.062;2024-01-15T09:13:12;53.10;;;31.50;;
76807;SDS011;65758;45.458;11.062;2024-01-15T09:15:39;58.00;;;33.10;;
76807;SDS011;65758;45.458;11.062;2024-01-15T09:18:06;58.00;;;31.30;;
76807;SDS011;65758;45.458;11.062;2024-01-15T09:20:34;52.20;;;29.70;;
76807;SDS011;65758;45.458;11.062;2024-01-15T09:23:02;53.80;;;30.60;;
76807;SDS011;65758;45.458;11.062;2024-01-15T09:25:29;52.10;;;30.90;;
76807;SDS011;65758;45.458;11.062;2024-01-15T09:27:56;51.80;;;31.40;;
76807;SDS011;65758;45.458;11.062;2024-01-15T09:30:23;54.00;;;31.60;;
76807;SDS011;65758;45.458;11.062;2024-01-15T09:32:50;51.10;;;32.30;;
76807;SDS011;65758;45.458;11.062;2024-01-15T09:35:17;51.80;;;33.60;;
76807;SDS011;65758;45.458;11.062;2024-01-15T09:37:46;57.00;;;34.10;;
76807;SDS011;65758;45.458;11.062;2024-01-15T09:40:14;54.90;;;33.40;;
76807;SDS011;65758;45.458;11.062;2024-01-15T09:42:42;57.20;;;33.70;;
76807;SDS011;65758;45.458;11.062;2024-01-15T09:45:10;54.10;;;34.50;;
76807;SDS011;65758;45.458;11.062;2024-01-15T09:47:38;59.30;;;33.50;;
76807;SDS011;65758;45.458;11.062;2024-01-15T09:50:12;53.70;;;32.00;;
76807;SDS011;65758;45.458;11.062;2024-01-15T09:52:40;52.10;;;31.90;;
76807;SDS011;65758;45.458;11.062;2024-01-15T09:55:08;54.30;;;30.30;;
76807;SDS011;65758;45.458;11.062;2024-01-15T09:57:36;51.00;;;32.00;;
76807;SDS011;65758;45.458;11.062;2024-01-15T10:00:04;51.90;;;30.70;;
76807;SDS011;65758;45.458;11.062;2024-01-15T10:02:37;46.80;;;30.00;;
76807;SDS011;65758;45.458;11.062;2024-01-15T10:05:04;47.00;;;28.70;;
76807;SDS011;65758;45.458;11.062;2024-01-15T10:07:32;44.10;;;28.80;;
76807;SDS011;65758;45.458;11.062;2024-01-15T10:10:02;47.40;;;28.60;;
76807;SDS011;65758;45.458;11.062;2024-01-15T10:12:30;48.60;;;29.30;;
76807;SDS011;65758;45.458;11.062;2024-01-15T10:14:57;42.10;;;25.90;;
76807;SDS011;65758;45.458;11.062;2024-01-15T10:17:24;43.40;;;26.90;;
76807;SDS011;65758;45.458;11.062;2024-01-15T10:19:54;43.40;;;26.40;;
76807;SDS011;65758;45.458;11.062;2024-01-15T10:22:22;39.20;;;26.60;;
76807;SDS011;65758;45.458;11.062;2024-01-15T10:24:49;40.30;;;25.80;;
76807;SDS011;65758;45.458;11.062;2024-01-15T10:27:16;38.90;;;25.80;;
76807;SDS011;65758;45.458;11.062;2024-01-15T10:29:43;45.10;;;27.00;;
76807;SDS011;65758;45.458;11.062;2024-01-15T10:32:11;40.10;;;25.30;;
76807;SDS011;65758;45.458;11.062;2024-01-15T10:34:39;45.80;;;28.60;;
76807;SDS011;65758;45.458;11.062;2024-01-15T10:37:08;45.70;;;28.00;;
76807;SDS011;65758;45.458;11.062;2024-01-15T10:39:36;49.80;;;31.40;;
76807;SDS011;65758;45.458;11.062;2024-01-15T10:42:04;51.00;;;30.60;;
76807;SDS011;65758;45.458;11.062;2024-01-15T10:44:33;48.80;;;29.90;;
76807;SDS011;65758;45.458;11.062;2024-01-15T10:47:01;47.90;;;29.30;;
76807;SDS011;65758;45.458;11.062;2024-01-15T10:49:28;50.40;;;31.60;;
76807;SDS011;65758;45.458;11.062;2024-01-15T10:52:00;47.30;;;28.70;;
76807;SDS011;65758;45.458;11.062;2024-01-15T10:54:28;50.00;;;30.50;;
76807;SDS011;65758;45.458;11.062;2024-01-15T10:56:57;48.90;;;29.90;;
76807;SDS011;65758;45.458;11.062;2024-01-15T10:59:24;53.50;;;32.20;;
76807;SDS011;65758;45.458;11.062;2024-01-15T11:01:51;53.30;;;31.00;;
76807;SDS011;65758;45.458;11.062;2024-01-15T11:04:23;48.50;;;30.10;;
76807;SDS011;65758;45.458;11.062;2024-01-15T11:06:52;53.00;;;33.00;;
76807;SDS011;65758;45.458;11.062;2024-01-15T11:09:23;52.00;;;30.20;;
76807;SDS011;65758;45.458;11.062;2024-01-15T11:11:52;48.90;;;30.40;;
76807;SDS011;65758;45.458;11.062;2024-01-15T11:14:34;51.70;;;31.60;;
76807;SDS011;65758;45.458;11.062;2024-01-15T11:17:11;48.90;;;30.60;;
76807;SDS011;65758;45.458;11.062;2024-01-15T11:25:12;50.30;;;29.40;;
76807;SDS011;65758;45.458;11.062;2024-01-15T11:30:10;48.00;;;29.20;;
76807;SDS011;65758;45.458;11.062;2024-01-15T11:32:40;45.40;;;28.20;;
76807;SDS011;65758;45.458;11.062;2024-01-15T11:35:11;47.90;;;27.90;;
76807;SDS011;65758;45.458;11.062;2024-01-15T11:40:22;45.00;;;29.30;;
76807;SDS011;65758;45.458;11.062;2024-01-15T11:43:04;45.00;;;27.60;;
76807;SDS011;65758;45.458;11.062;2024-01-15T11:45:36;45.00;;;27.20;;
76807;SDS011;65758;45.458;11.062;2024-01-15T11:48:11;42.90;;;26.20;;
76807;SDS011;65758;45.458;11.062;2024-01-15T11:50:47;45.20;;;27.20;;
76807;SDS011;65758;45.458;11.062;2024-01-15T11:53:27;41.90;;;25.00;;
76807;SDS011;65758;45.458;11.062;2024-01-15T11:56:01;45.50;;;26.20;;
76807;SDS011;65758;45.458;11.062;2024-01-15T11:58:29;48.30;;;30.40;;
76807;SDS011;65758;45.458;11.062;2024-01-15T12:00:56;49.60;;;29.80;;
76807;SDS011;65758;45.458;11.062;2024-01-15T12:03:24;47.30;;;29.20;;
76807;SDS011;65758;45.458;11.062;2024-01-15T12:05:54;48.20;;;29.20;;
76807;SDS011;65758;45.458;11.062;2024-01-15T12:08:24;42.50;;;24.50;;
76807;SDS011;65758;45.458;11.062;2024-01-15T12:10:51;49.80;;;29.70;;
76807;SDS011;65758;45.458;11.062;2024-01-15T12:13:19;50.50;;;29.70;;
76807;SDS011;65758;45.458;11.062;2024-01-15T12:15:47;50.10;;;29.30;;
76807;SDS011;65758;45.458;11.062;2024-01-15T12:18:17;45.30;;;27.60;;
76807;SDS011;65758;45.458;11.062;2024-01-15T12:20:46;43.70;;;26.60;;
76807;SDS011;65758;45.458;11.062;2024-01-15T12:23:16;46.70;;;29.80;;
76807;SDS011;65758;45.458;11.062;2024-01-15T12:25:44;48.10;;;28.50;;
76807;SDS011;65758;45.458;11.062;2024-01-15T12:28:11;52.80;;;30.40;;
76807;SDS011;65758;45.458;11.062;2024-01-15T12:30:38;51.40;;;31.80;;
76807;SDS011;65758;45.458;11.062;2024-01-15T12:33:07;51.00;;;30.90;;
76807;SDS011;65758;45.458;11.062;2024-01-15T12:35:36;50.60;;;31.10;;
76807;SDS011;65758;45.458;11.062;2024-01-15T12:38:03;51.40;;;31.10;;
76807;SDS011;65758;45.458;11.062;2024-01-15T12:40:32;49.70;;;29.80;;
76807;SDS011;65758;45.458;11.062;2024-01-15T12:43:02;52.60;;;31.60;;
76807;SDS011;65758;45.458;11.062;2024-01-15T12:45:30;54.10;;;32.10;;
76807;SDS011;65758;45.458;11.062;2024-01-15T12:47:58;52.80;;;31.80;;
76807;SDS011;65758;45.458;11.062;2024-01-15T12:50:25;49.30;;;28.90;;
76807;SDS011;65758;45.458;11.062;2024-01-15T12:52:52;55.10;;;31.60;;
76807;SDS011;65758;45.458;11.062;2024-01-15T12:55:19;58.60;;;34.00;;
76807;SDS011;65758;45.458;11.062;2024-01-15T12:57:46;51.50;;;31.80;;
76807;SDS011;65758;45.458;11.062;2024-01-15T13:00:13;51.80;;;31.90;;
76807;SDS011;65758;45.458;11.062;2024-01-15T13:02:42;58.30;;;33.60;;
76807;SDS011;65758;45.458;11.062;2024-01-15T13:05:10;53.40;;;31.90;;
76807;SDS011;65758;45.458;11.062;2024-01-15T13:07:40;49.10;;;29.10;;
76807;SDS011;65758;45.458;11.062;2024-01-15T13:10:07;60.40;;;34.20;;
76807;SDS011;65758;45.458;11.062;2024-01-15T13:12:36;52.70;;;33.80;;
76807;SDS011;65758;45.458;11.062;2024-01-15T13:15:05;50.60;;;31.40;;
76807;SDS011;65758;45.458;11.062;2024-01-15T13:17:32;57.80;;;34.20;;
76807;SDS011;65758;45.458;11.062;2024-01-15T13:19:59;52.70;;;31.80;;
76807;SDS011;65758;45.458;11.062;2024-01-15T13:22:27;58.00;;;33.90;;
76807;SDS011;65758;45.458;11.062;2024-01-15T13:24:59;51.50;;;32.10;;
76807;SDS011;65758;45.458;11.062;2024-01-15T13:27:27;56.70;;;35.50;;
76807;SDS011;65758;45.458;11.062;2024-01-15T13:29:55;51.60;;;32.90;;
76807;SDS011;65758;45.458;11.062;2024-01-15T13:32:24;59.90;;;37.60;;
76807;SDS011;65758;45.458;11.062;2024-01-15T13:34:53;56.00;;;34.60;;
76807;SDS011;65758;45.458;11.062;2024-01-15T13:37:22;57.10;;;34.30;;
76807;SDS011;65758;45.458;11.062;2024-01-15T13:39:51;59.10;;;36.30;;
76807;SDS011;65758;45.458;11.062;2024-01-15T13:42:20;56.60;;;34.50;;
76807;SDS011;65758;45.458;11.062;2024-01-15T13:44:50;55.40;;;32.90;;
76807;SDS011;65758;45.458;11.062;2024-01-15T13:47:18;55.20;;;34.10;;
76807;SDS011;65758;45.458;11.062;2024-01-15T13:49:45;55.50;;;34.60;;
76807;SDS011;65758;45.458;11.062;2024-01-15T13:52:12;64.00;;;37.40;;
76807;SDS011;65758;45.458;11.062;2024-01-15T13:54:39;59.90;;;35.50;;
76807;SDS011;65758;45.458;11.062;2024-01-15T13:57:18;59.80;;;35.30;;
76807;SDS011;65758;45.458;11.062;2024-01-15T13:59:47;55.60;;;34.30;;
76807;SDS011;65758;45.458;11.062;2024-01-15T14:02:16;54.10;;;33.70;;
76807;SDS011;65758;45.458;11.062;2024-01-15T14:04:47;58.60;;;36.20;;
76807;SDS011;65758;45.458;11.062;2024-01-15T14:07:15;55.20;;;33.10;;
76807;SDS011;65758;45.458;11.062;2024-01-15T14:09:42;60.80;;;36.40;;
76807;SDS011;65758;45.458;11.062;2024-01-15T14:12:09;48.40;;;31.50;;
76807;SDS011;65758;45.458;11.062;2024-01-15T14:14:36;56.90;;;33.40;;
76807;SDS011;65758;45.458;11.062;2024-01-15T14:17:03;58.50;;;34.40;;
76807;SDS011;65758;45.458;11.062;2024-01-15T14:19:30;57.70;;;35.80;;
76807;SDS011;65758;45.458;11.062;2024-01-15T14:21:57;56.20;;;33.00;;
76807;SDS011;65758;45.458;11.062;2024-01-15T14:24:25;59.50;;;36.80;;
76807;SDS011;65758;45.458;11.062;2024-01-15T14:26:51;59.20;;;36.20;;
76807;SDS011;65758;45.458;11.062;2024-01-15T14:29:18;55.90;;;32.10;;
76807;SDS011;65758;45.458;11.062;2024-01-15T14:31:47;65.00;;;37.60;;
76807;SDS011;65758;45.458;11.062;2024-01-15T14:34:14;55.70;;;35.30;;
76807;SDS011;65758;45.458;11.062;2024-01-15T14:36:42;62.90;;;36.50;;
76807;SDS011;65758;45.458;11.062;2024-01-15T14:39:09;60.20;;;36.00;;
76807;SDS011;65758;45.458;11.062;2024-01-15T14:41:36;61.00;;;37.30;;
76807;SDS011;65758;45.458;11.062;2024-01-15T14:44:03;59.10;;;36.10;;
76807;SDS011;65758;45.458;11.062;2024-01-15T14:46:30;59.60;;;35.00;;
76807;SDS011;65758;45.458;11.062;2024-01-15T14:48:57;64.70;;;36.90;;
76807;SDS011;65758;45.458;11.062;2024-01-15T14:51:24;61.30;;;36.50;;
76807;SDS011;65758;45.458;11.062;2024-01-15T14:53:51;58.20;;;36.30;;
76807;SDS011;65758;45.458;11.062;2024-01-15T14:56:18;62.10;;;37.50;;
76807;SDS011;65758;45.458;11.062;2024-01-15T14:58:45;59.30;;;36.60;;
76807;SDS011;65758;45.458;11.062;2024-01-15T15:01:12;59.80;;;37.00;;
76807;SDS011;65758;45.458;11.062;2024-01-15T15:03:39;57.80;;;36.40;;
76807;SDS011;65758;45.458;11.062;2024-01-15T15:06:07;63.80;;;39.00;;
76807;SDS011;65758;45.458;11.062;2024-01-15T15:08:36;60.00;;;37.10;;
76807;SDS011;65758;45.458;11.062;2024-01-15T15:11:03;60.00;;;36.70;;
76807;SDS011;65758;45.458;11.062;2024-01-15T15:13:30;57.70;;;38.80;;
76807;SDS011;65758;45.458;11.062;2024-01-15T15:16:10;60.50;;;37.60;;
76807;SDS011;65758;45.458;11.062;2024-01-15T15:18:40;62.70;;;37.70;;
76807;SDS011;65758;45.458;11.062;2024-01-15T15:21:10;62.10;;;37.50;;
76807;SDS011;65758;45.458;11.062;2024-01-15T15:23:38;71.40;;;41.60;;
76807;SDS011;65758;45.458;11.062;2024-01-15T15:26:08;63.50;;;38.50;;
76807;SDS011;65758;45.458;11.062;2024-01-15T15:28:35;66.80;;;38.60;;
76807;SDS011;65758;45.458;11.062;2024-01-15T15:31:05;64.20;;;38.70;;
76807;SDS011;65758;45.458;11.062;2024-01-15T15:33:35;67.90;;;40.70;;
76807;SDS011;65758;45.458;11.062;2024-01-15T15:36:02;65.60;;;39.60;;
76807;SDS011;65758;45.458;11.062;2024-01-15T15:38:32;68.80;;;41.30;;
76807;SDS011;65758;45.458;11.062;2024-01-15T15:40:59;67.30;;;39.20;;
76807;SDS011;65758;45.458;11.062;2024-01-15T15:43:27;63.80;;;39.90;;